createdAt,value
2018-12-05T00:01:27.065Z,101347.22
2018-12-05T00:03:56.084Z,101347.90
2018-12-05T00:06:24.377Z,101347.56
2018-12-05T00:08:52.689Z,101343.13
2018-12-05T00:11:21.075Z,101340.70
2018-12-05T00:13:49.807Z,101332.74
2018-12-05T00:16:18.136Z,101327.81
2018-12-05T00:18:46.430Z,101327.59
2018-12-05T00:21:14.748Z,101324.29
2018-12-05T00:23:43.040Z,101329.89
2018-12-05T00:26:11.719Z,101325.33
2018-12-05T00:28:40.221Z,101321.30
2018-12-05T00:31:08.794Z,101324.02
2018-12-05T00:33:37.178Z,101323.71
2018-12-05T00:36:05.504Z,101322.45
2018-12-05T00:38:33.832Z,101321.78
2018-12-05T00:41:02.138Z,101323.50
2018-12-05T00:43:30.445Z,101322.22
2018-12-05T00:45:59.014Z,101320.38
2018-12-05T00:48:27.363Z,101323.69
2018-12-05T00:50:55.669Z,101330.63
2018-12-05T00:53:24.026Z,101335.72
2018-12-05T00:55:52.414Z,101342.63
2018-12-05T00:58:20.729Z,101338.84
2018-12-05T01:00:49.014Z,101342.30
2018-12-05T01:03:17.358Z,101341.83
2018-12-05T01:05:45.878Z,101334.69
2018-12-05T01:08:14.472Z,101332.88
2018-12-05T01:10:42.809Z,101340.68
2018-12-05T01:13:11.203Z,101333.45
2018-12-05T01:15:39.513Z,101327.30
2018-12-05T01:18:07.834Z,101316.10
2018-12-05T01:20:36.362Z,101319.30
2018-12-05T01:23:04.801Z,101319.64
2018-12-05T01:25:33.196Z,101324.56
2018-12-05T01:28:01.527Z,101327.68
2018-12-05T01:30:30.351Z,101325.80
2018-12-05T01:32:58.727Z,101328.36
2018-12-05T01:35:27.334Z,101329.68
2018-12-05T01:37:55.667Z,101333.77
2018-12-05T01:40:23.974Z,101341.44
2018-12-05T01:42:52.507Z,101341.09
2018-12-05T01:45:20.805Z,101342.69
2018-12-05T01:47:49.094Z,101338.80
2018-12-05T01:50:17.832Z,101335.69
2018-12-05T01:52:46.458Z,101334.93
2018-12-05T01:55:14.787Z,101337.15
2018-12-05T01:57:43.111Z,101330.30
2018-12-05T02:00:11.662Z,101335.27
2018-12-05T02:02:40.058Z,101336.95
2018-12-05T02:05:08.537Z,101339.69
2018-12-05T02:07:36.974Z,101348.95
2018-12-05T02:10:05.940Z,101344.25
2018-12-05T02:12:34.325Z,101340.88
2018-12-05T02:15:02.644Z,101340.88
2018-12-05T02:17:30.978Z,101340.16
2018-12-05T02:19:59.289Z,101336.57
2018-12-05T02:22:27.597Z,101338.91
2018-12-05T02:24:55.893Z,101336.10
2018-12-05T02:27:24.228Z,101340.05
2018-12-05T02:29:58.523Z,101329.36
2018-12-05T02:32:27.191Z,101337.39
2018-12-05T02:34:55.453Z,101341.05
2018-12-05T02:37:23.880Z,101329.02
2018-12-05T02:39:52.190Z,101334.28
2018-12-05T02:42:20.479Z,101333.23
2018-12-05T02:44:48.891Z,101336.74
2018-12-05T02:47:17.277Z,101336.31
2018-12-05T02:49:45.580Z,101338.40
2018-12-05T02:52:13.919Z,101335.20
2018-12-05T02:54:42.493Z,101344.84
2018-12-05T02:57:10.803Z,101337.88
2018-12-05T02:59:39.139Z,101334.91
2018-12-05T03:02:07.504Z,101333.13
2018-12-05T03:04:35.932Z,101333.31
2018-12-05T03:07:04.263Z,101341.05
2018-12-05T03:09:33.164Z,101335.00
2018-12-05T03:12:01.479Z,101332.04
2018-12-05T03:14:30.491Z,101328.00
2018-12-05T03:16:58.831Z,101330.62
2018-12-05T03:19:27.162Z,101324.86
2018-12-05T03:21:55.509Z,101325.09
2018-12-05T03:24:23.908Z,101323.65
2018-12-05T03:26:52.491Z,101325.69
2018-12-05T03:29:20.786Z,101333.03
2018-12-05T03:31:49.081Z,101321.71
2018-12-05T03:34:17.364Z,101319.72
2018-12-05T03:36:45.689Z,101318.30
2018-12-05T03:39:13.974Z,101320.05
2018-12-05T03:41:42.386Z,101317.43
2018-12-05T03:44:10.763Z,101320.75
2018-12-05T03:46:39.097Z,101320.16
2018-12-05T03:49:07.396Z,101318.91
2018-12-05T03:51:35.992Z,101319.44
2018-12-05T03:54:04.448Z,101320.84
2018-12-05T03:56:32.769Z,101316.42
2018-12-05T03:59:01.087Z,101319.78
2018-12-05T04:01:29.845Z,101317.67
2018-12-05T04:03:58.273Z,101320.47
2018-12-05T04:06:26.607Z,101318.92
2018-12-05T04:08:54.915Z,101317.12
2018-12-05T04:11:23.251Z,101321.44
2018-12-05T04:13:51.611Z,101326.69
2018-12-05T04:16:20.249Z,101325.83
2018-12-05T04:18:48.811Z,101326.89
2018-12-05T04:21:17.144Z,101330.62
2018-12-05T04:23:45.458Z,101326.92
2018-12-05T04:26:14.569Z,101326.69
2018-12-05T04:28:42.903Z,101319.06
2018-12-05T04:31:11.364Z,101314.06
2018-12-05T04:33:39.708Z,101314.16
2018-12-05T04:36:08.014Z,101315.02
2018-12-05T04:38:36.352Z,101307.53
2018-12-05T04:41:04.664Z,101316.98
2018-12-05T04:43:33.375Z,101310.81
2018-12-05T04:46:01.670Z,101317.20
2018-12-05T04:48:30.266Z,101318.37
2018-12-05T04:50:58.626Z,101321.92
2018-12-05T04:53:27.117Z,101314.88
2018-12-05T04:55:55.508Z,101312.78
2018-12-05T04:58:23.884Z,101312.09
2018-12-05T05:00:52.197Z,101311.36
2018-12-05T05:03:20.688Z,101305.42
2018-12-05T05:05:49.119Z,101306.49
2018-12-05T05:08:17.468Z,101306.22
2018-12-05T05:10:45.892Z,101306.25
2018-12-05T05:13:15.073Z,101306.05
2018-12-05T05:15:43.421Z,101301.25
2018-12-05T05:18:11.744Z,101301.18
2018-12-05T05:20:40.232Z,101307.15
2018-12-05T05:23:08.762Z,101303.08
2018-12-05T05:25:37.093Z,101304.28
2018-12-05T05:28:05.373Z,101297.25
2018-12-05T05:30:33.716Z,101307.97
2018-12-05T05:33:02.084Z,101302.77
2018-12-05T05:35:30.546Z,101308.98
2018-12-05T05:37:59.349Z,101312.09
2018-12-05T05:40:27.688Z,101316.18
2018-12-05T05:42:56.011Z,101310.97
2018-12-05T05:45:24.297Z,101309.55
2018-12-05T05:47:52.621Z,101309.91
2018-12-05T05:50:20.988Z,101312.30
2018-12-05T05:52:49.336Z,101312.31
2018-12-05T05:55:17.616Z,101312.42
2018-12-05T05:57:46.109Z,101312.11
2018-12-05T06:00:14.577Z,101315.92
2018-12-05T06:02:43.054Z,101315.30
2018-12-05T06:05:11.568Z,101314.16
2018-12-05T06:07:40.194Z,101314.00
2018-12-05T06:10:08.604Z,101314.27
2018-12-05T06:12:36.972Z,101311.87
2018-12-05T06:15:07.432Z,101320.44
2018-12-05T06:17:35.733Z,101319.64
2018-12-05T06:20:04.888Z,101308.81
2018-12-05T06:22:33.218Z,101303.22
2018-12-05T06:25:01.799Z,101307.48
2018-12-05T06:27:30.122Z,101311.06
2018-12-05T06:29:58.526Z,101314.98
2018-12-05T06:32:26.841Z,101320.73
2018-12-05T06:34:55.195Z,101316.53
2018-12-05T06:37:23.503Z,101321.30
2018-12-05T06:39:51.984Z,101323.34
2018-12-05T06:42:20.355Z,101318.46
2018-12-05T06:44:48.739Z,101323.56
2018-12-05T06:47:17.062Z,101321.20
2018-12-05T06:49:45.428Z,101314.39
2018-12-05T06:52:13.778Z,101324.05
2018-12-05T06:54:42.461Z,101321.77
2018-12-05T06:57:10.874Z,101320.94
2018-12-05T06:59:39.266Z,101321.64
2018-12-05T07:02:07.704Z,101327.48
2018-12-05T07:04:36.016Z,101331.19
2018-12-05T07:07:04.966Z,101332.50
2018-12-05T07:09:33.302Z,101331.07
2018-12-05T07:12:01.648Z,101327.02
2018-12-05T07:14:29.932Z,101327.49
2018-12-05T07:16:58.249Z,101333.34
2018-12-05T07:19:26.648Z,101332.37
2018-12-05T07:21:55.026Z,101334.73
2018-12-05T07:24:23.323Z,101331.89
2018-12-05T07:26:51.836Z,101328.09
2018-12-05T07:29:20.139Z,101322.34
2018-12-05T07:31:48.687Z,101324.49
2018-12-05T07:34:17.078Z,101321.39
2018-12-05T07:36:45.603Z,101323.30
2018-12-05T07:39:14.041Z,101319.10
2018-12-05T07:41:42.343Z,101309.10
2018-12-05T07:44:10.665Z,101310.73
2018-12-05T07:46:39.046Z,101319.20
2018-12-05T07:49:07.376Z,101317.55
2018-12-05T07:51:35.796Z,101323.03
2018-12-05T07:54:04.543Z,101316.00
2018-12-05T07:56:32.925Z,101308.48
2018-12-05T07:59:01.538Z,101303.47
2018-12-05T08:01:29.863Z,101304.92
2018-12-05T08:03:58.436Z,101301.89
2018-12-05T08:06:26.919Z,101300.06
2018-12-05T08:08:55.337Z,101301.72
2018-12-05T08:11:24.238Z,101290.48
2018-12-05T08:13:52.598Z,101288.48
2018-12-05T08:16:20.917Z,101292.27
2018-12-05T08:18:49.576Z,101293.80
2018-12-05T08:21:18.141Z,101287.48
2018-12-05T08:23:46.676Z,101286.14
2018-12-05T08:26:14.971Z,101281.55
2018-12-05T08:28:43.266Z,101288.24
2018-12-05T08:31:11.596Z,101287.16
2018-12-05T08:33:40.029Z,101286.68
2018-12-05T08:36:08.479Z,101284.47
2018-12-05T08:38:36.904Z,101290.67
2018-12-05T08:41:05.205Z,101286.54
2018-12-05T08:43:33.511Z,101281.48
2018-12-05T08:46:01.830Z,101278.03
2018-12-05T08:48:30.158Z,101273.91
2018-12-05T08:50:58.570Z,101270.65
2018-12-05T08:53:26.965Z,101271.83
2018-12-05T08:55:55.480Z,101278.77
2018-12-05T08:58:23.905Z,101278.38
2018-12-05T09:00:52.403Z,101282.02
2018-12-05T09:03:21.510Z,101276.84
2018-12-05T09:05:50.830Z,101271.41
2018-12-05T09:08:19.119Z,101269.52
2018-12-05T09:10:47.650Z,101266.68
2018-12-05T09:13:16.091Z,101263.98
2018-12-05T09:15:44.466Z,101260.20
2018-12-05T09:18:12.774Z,101261.17
2018-12-05T09:20:41.118Z,101262.89
2018-12-05T09:23:09.430Z,101257.42
2018-12-05T09:25:37.733Z,101262.33
2018-12-05T09:28:06.021Z,101260.55
2018-12-05T09:30:34.471Z,101256.19
2018-12-05T09:33:02.871Z,101254.80
2018-12-05T09:35:31.440Z,101258.51
2018-12-05T09:37:59.826Z,101257.23
2018-12-05T09:40:35.932Z,101255.67
2018-12-05T09:43:04.425Z,101255.75
2018-12-05T09:45:32.776Z,101261.01
2018-12-05T09:48:01.291Z,101261.24
2018-12-05T09:50:29.640Z,101251.65
2018-12-05T09:52:57.925Z,101248.77
2018-12-05T09:55:26.379Z,101244.78
2018-12-05T09:57:54.705Z,101251.56
2018-12-05T10:00:23.312Z,101255.41
2018-12-05T10:02:51.915Z,101251.70
2018-12-05T10:05:20.201Z,101240.84
2018-12-05T10:07:48.588Z,101245.52
2018-12-05T10:10:16.900Z,101239.14
2018-12-05T10:12:45.222Z,101233.13
2018-12-05T10:15:13.739Z,101230.89
2018-12-05T10:17:42.861Z,101231.91
2018-12-05T10:20:11.461Z,101231.72
2018-12-05T10:22:39.798Z,101224.06
2018-12-05T10:25:08.336Z,101219.78
2018-12-05T10:27:36.678Z,101220.55
2018-12-05T10:30:07.654Z,101214.71
2018-12-05T10:32:35.988Z,101211.12
2018-12-05T10:35:05.132Z,101203.92
2018-12-05T10:37:33.548Z,101208.31
2018-12-05T10:40:01.980Z,101204.59
2018-12-05T10:42:30.375Z,101196.23
2018-12-05T10:44:58.872Z,101191.69
2018-12-05T10:47:27.272Z,101190.02
2018-12-05T10:49:55.604Z,101188.34
2018-12-05T10:52:24.007Z,101189.34
2018-12-05T10:54:52.449Z,101184.25
2018-12-05T10:57:21.086Z,101178.66
2018-12-05T10:59:49.397Z,101172.10
2018-12-05T11:02:23.390Z,101165.87
2018-12-05T11:04:57.268Z,101166.34
2018-12-05T11:07:31.217Z,101164.46
2018-12-05T11:16:14.567Z,101153.47
2018-12-05T11:18:48.448Z,101148.83
2018-12-05T11:21:22.969Z,101146.65
2018-12-05T11:23:55.269Z,101146.74
2018-12-05T11:26:25.400Z,101130.82
2018-12-05T11:28:53.721Z,101136.23
2018-12-05T11:31:22.348Z,101132.14
2018-12-05T11:33:50.664Z,101129.17
2018-12-05T11:36:19.099Z,101136.13
2018-12-05T11:38:47.448Z,101135.50
2018-12-05T11:41:15.823Z,101136.95
2018-12-05T11:43:44.203Z,101126.76
2018-12-05T11:46:12.502Z,101121.12
2018-12-05T11:48:41.149Z,101107.54
2018-12-05T11:51:09.534Z,101103.67
2018-12-05T11:53:37.850Z,101094.22
2018-12-05T11:56:06.696Z,101099.41
2018-12-05T11:58:35.106Z,101101.12
2018-12-05T12:01:03.437Z,101094.86
2018-12-05T12:03:31.738Z,101091.75
2018-12-05T12:06:00.828Z,101100.36
2018-12-05T12:08:29.140Z,101091.44
2018-12-05T12:10:57.459Z,101084.69
2018-12-05T12:13:25.741Z,101084.35
2018-12-05T12:15:54.190Z,101088.63
2018-12-05T12:18:22.777Z,101072.77
2018-12-05T12:20:51.358Z,101073.14
2018-12-05T12:23:19.633Z,101068.67
2018-12-05T12:25:47.963Z,101071.80
2018-12-05T12:28:16.319Z,101062.73
2018-12-05T12:30:45.176Z,101058.24
2018-12-05T12:33:13.683Z,101058.09
2018-12-05T12:35:42.047Z,101049.83
2018-12-05T12:38:11.057Z,101045.53
2018-12-05T12:40:39.364Z,101036.45
2018-12-05T12:43:07.959Z,101029.16
2018-12-05T12:45:36.259Z,101019.44
2018-12-05T12:48:04.737Z,101020.61
2018-12-05T12:50:33.078Z,101014.97
2018-12-05T12:53:01.369Z,101018.60
2018-12-05T12:55:29.929Z,101022.76
2018-12-05T12:57:58.595Z,101018.45
2018-12-05T13:00:27.126Z,101016.80
2018-12-05T13:02:55.490Z,101010.02
2018-12-05T13:05:23.900Z,101004.08
2018-12-05T13:07:52.358Z,101000.94
2018-12-05T13:10:20.707Z,101008.88
2018-12-05T13:12:51.048Z,101004.58
2018-12-05T13:15:19.463Z,101005.08
2018-12-05T13:17:47.830Z,101000.61
2018-12-05T13:20:16.124Z,101005.41
2018-12-05T13:22:44.480Z,101003.90
2018-12-05T13:25:13.288Z,100998.45
2018-12-05T13:27:41.733Z,100991.04
2018-12-05T13:30:10.195Z,100994.80
2018-12-05T13:32:38.678Z,100987.73
2018-12-05T13:35:07.265Z,100983.23
2018-12-05T13:37:35.866Z,100992.17
2018-12-05T13:40:07.246Z,100977.47
2018-12-05T13:42:35.662Z,100973.52
2018-12-05T13:45:05.230Z,100968.74
2018-12-05T13:47:33.571Z,100961.30
2018-12-05T13:50:01.872Z,100954.20
2018-12-05T13:52:30.168Z,100952.53
2018-12-05T13:54:58.477Z,100960.31
2018-12-05T13:57:26.776Z,100955.84
2018-12-05T13:59:55.813Z,100955.84
2018-12-05T14:02:24.118Z,100944.27
2018-12-05T14:04:52.532Z,100945.89
2018-12-05T14:07:20.827Z,100941.97
2018-12-05T14:09:49.142Z,100936.52
2018-12-05T14:12:22.910Z,100938.51
2018-12-05T14:14:51.302Z,100915.19
2018-12-05T14:17:19.607Z,100919.84
2018-12-05T14:19:48.097Z,100912.27
2018-12-05T14:22:16.896Z,100908.23
2018-12-05T14:24:45.181Z,100909.22
2018-12-05T14:27:13.588Z,100905.64
2018-12-05T14:29:41.991Z,100904.66
2018-12-05T14:32:10.327Z,100892.75
2018-12-05T14:34:38.927Z,100900.31
2018-12-05T14:37:07.237Z,100894.08
2018-12-05T14:39:35.691Z,100896.25
2018-12-05T14:42:04.032Z,100883.33
2018-12-05T14:44:32.411Z,100877.11
2018-12-05T14:47:00.758Z,100875.14
2018-12-05T14:49:29.234Z,100864.58
2018-12-05T14:51:57.593Z,100862.90
2018-12-05T14:54:25.987Z,100858.09
2018-12-05T14:56:54.308Z,100849.08
2018-12-05T14:59:22.692Z,100849.89
2018-12-05T15:01:51.602Z,100848.73
2018-12-05T15:04:20.353Z,100844.07
2018-12-05T15:06:49.114Z,100835.17
2018-12-05T15:09:17.415Z,100813.91
2018-12-05T15:11:45.760Z,100821.65
2018-12-05T15:14:14.839Z,100809.92
2018-12-05T15:16:43.213Z,100812.08
2018-12-05T15:19:11.544Z,100806.16
2018-12-05T15:21:39.861Z,100814.55
2018-12-05T15:24:08.784Z,100803.66
2018-12-05T15:26:37.079Z,100800.20
2018-12-05T15:29:05.447Z,100793.44
2018-12-05T15:31:33.738Z,100791.47
2018-12-05T15:34:02.080Z,100777.96
2018-12-05T15:36:30.473Z,100772.83
2018-12-05T15:38:58.946Z,100763.91
2018-12-05T15:41:27.429Z,100773.54
2018-12-05T15:43:55.811Z,100763.77
2018-12-05T15:46:24.148Z,100765.41
2018-12-05T15:48:52.449Z,100764.12
2018-12-05T15:51:20.799Z,100758.17
2018-12-05T15:53:49.362Z,100757.34
2018-12-05T15:56:17.701Z,100751.58
2018-12-05T15:58:46.025Z,100754.22
2018-12-05T16:01:14.348Z,100753.90
2018-12-05T16:03:43.327Z,100752.39
2018-12-05T16:06:12.259Z,100746.48
2018-12-05T16:08:40.568Z,100747.94
2018-12-05T16:11:09.018Z,100751.58
2018-12-05T16:13:37.393Z,100746.98
2018-12-05T16:16:05.812Z,100751.07
2018-12-05T16:18:34.217Z,100739.56
2018-12-05T16:21:02.552Z,100742.02
2018-12-05T16:23:30.847Z,100729.14
2018-12-05T16:25:59.987Z,100724.69
2018-12-05T16:28:28.323Z,100728.64
2018-12-05T16:30:56.675Z,100714.63
2018-12-05T16:33:25.255Z,100709.99
2018-12-05T16:35:53.719Z,100712.63
2018-12-05T16:38:21.992Z,100701.09
2018-12-05T16:40:50.429Z,100698.13
2018-12-05T16:43:18.860Z,100692.52
2018-12-05T16:45:47.238Z,100690.06
2018-12-05T16:48:15.594Z,100682.63
2018-12-05T16:50:44.112Z,100678.81
2018-12-05T16:53:12.522Z,100678.31
2018-12-05T16:55:40.887Z,100662.30
2018-12-05T16:58:09.189Z,100654.57
2018-12-05T17:00:38.199Z,100656.05
2018-12-05T17:03:06.544Z,100653.94
2018-12-05T17:05:34.858Z,100652.27
2018-12-05T17:08:03.197Z,100660.01
2018-12-05T17:10:31.728Z,100651.04
2018-12-05T17:13:00.078Z,100652.28
2018-12-05T17:15:28.738Z,100644.00
2018-12-05T17:17:57.172Z,100640.97
2018-12-05T17:20:25.670Z,100631.48
2018-12-05T17:22:53.984Z,100634.56
2018-12-05T17:25:22.498Z,100611.19
2018-12-05T17:27:51.049Z,100614.56
2018-12-05T17:30:19.403Z,100605.38
2018-12-05T17:32:47.682Z,100602.47
2018-12-05T17:35:16.006Z,100605.62
2018-12-05T17:37:44.331Z,100594.16
2018-12-05T17:40:12.843Z,100596.59
2018-12-05T17:42:41.206Z,100591.56
2018-12-05T17:45:09.694Z,100597.26
2018-12-05T17:47:37.989Z,100592.30
2018-12-05T17:50:06.434Z,100587.41
2018-12-05T17:52:34.751Z,100596.23
2018-12-05T17:55:03.278Z,100577.68
2018-12-05T17:57:31.906Z,100579.13
2018-12-05T18:00:00.269Z,100572.49
2018-12-05T18:02:29.283Z,100573.81
2018-12-05T18:04:57.805Z,100563.23
2018-12-05T18:07:26.377Z,100567.13
2018-12-05T18:09:54.910Z,100558.79
2018-12-05T18:12:23.235Z,100557.69
2018-12-05T18:14:51.565Z,100559.42
2018-12-05T18:17:20.008Z,100561.66
2018-12-05T18:19:49.055Z,100563.70
2018-12-05T18:22:17.339Z,100555.61
2018-12-05T18:24:45.699Z,100561.12
2018-12-05T18:27:14.156Z,100559.81
2018-12-05T18:29:42.676Z,100549.77
2018-12-05T18:32:11.021Z,100544.70
2018-12-05T18:34:39.371Z,100544.60
2018-12-05T18:37:07.775Z,100534.14
2018-12-05T18:39:36.359Z,100528.54
2018-12-05T18:42:04.963Z,100527.12
2018-12-05T18:44:33.457Z,100527.42
2018-12-05T18:47:01.797Z,100527.30
2018-12-05T18:49:30.103Z,100522.03
2018-12-05T18:51:58.410Z,100520.98
2018-12-05T18:54:26.664Z,100522.63
2018-12-05T18:56:55.021Z,100527.29
2018-12-05T18:59:23.308Z,100513.64
2018-12-05T19:01:51.822Z,100507.83
2018-12-05T19:04:20.126Z,100512.63
2018-12-05T19:06:48.493Z,100516.75
2018-12-05T19:09:16.889Z,100508.73
2018-12-05T19:11:45.865Z,100506.72
2018-12-05T19:14:19.924Z,100509.16
2018-12-05T19:16:48.251Z,100498.40
2018-12-05T19:19:16.613Z,100503.34
2018-12-05T19:21:44.979Z,100495.44
2018-12-05T19:24:13.261Z,100489.18
2018-12-05T19:26:41.678Z,100484.60
2018-12-05T19:29:10.018Z,100471.68
2018-12-05T19:31:38.575Z,100462.48
2018-12-05T19:34:06.978Z,100457.42
2018-12-05T19:36:35.359Z,100452.74
2018-12-05T19:41:50.192Z,100455.25
2018-12-05T19:44:18.505Z,100443.05
2018-12-05T19:46:46.856Z,100432.63
2018-12-05T19:49:15.435Z,100435.43
2018-12-05T19:51:43.737Z,100421.41
2018-12-05T19:54:12.228Z,100430.22
2018-12-05T19:56:40.686Z,100422.59
2018-12-05T19:59:08.981Z,100413.56
2018-12-05T20:01:37.369Z,100416.79
2018-12-05T20:04:05.923Z,100415.92
2018-12-05T20:06:34.376Z,100411.22
2018-12-05T20:09:02.720Z,100411.80
2018-12-05T20:11:31.055Z,100413.09
2018-12-05T20:13:59.383Z,100405.28
2018-12-05T20:16:27.714Z,100399.92
2018-12-05T20:18:56.016Z,100399.19
2018-12-05T20:21:24.403Z,100393.83
2018-12-05T20:23:53.465Z,100397.95
2018-12-05T20:26:21.846Z,100391.16
2018-12-05T20:28:50.809Z,100397.70
2018-12-05T20:31:19.174Z,100392.21
2018-12-05T20:33:47.825Z,100392.87
2018-12-05T20:36:16.325Z,100389.28
2018-12-05T20:38:44.710Z,100389.59
2018-12-05T20:41:13.085Z,100378.59
2018-12-05T20:43:41.870Z,100374.16
2018-12-05T20:46:10.285Z,100365.61
2018-12-05T20:48:38.659Z,100360.02
2018-12-05T20:51:07.062Z,100362.44
2018-12-05T20:53:36.115Z,100359.70
2018-12-05T20:56:04.611Z,100349.05
2018-12-05T20:58:32.975Z,100353.38
2018-12-05T21:01:01.745Z,100350.83
2018-12-05T21:03:30.071Z,100346.91
2018-12-05T21:05:58.405Z,100344.48
2018-12-05T21:08:26.750Z,100345.08
2018-12-05T21:10:55.089Z,100334.70
2018-12-05T21:13:23.543Z,100330.30
2018-12-05T21:15:51.859Z,100329.75
2018-12-05T21:18:20.319Z,100325.29
2018-12-05T21:20:48.658Z,100329.30
2018-12-05T21:23:17.101Z,100313.78
2018-12-05T21:25:45.475Z,100321.87
2018-12-05T21:28:13.844Z,100316.05
2018-12-05T21:30:42.421Z,100313.52
2018-12-05T21:33:10.890Z,100311.73
2018-12-05T21:35:39.338Z,100311.81
2018-12-05T21:38:08.379Z,100313.55
2018-12-05T21:40:36.809Z,100303.77
2018-12-05T21:43:05.186Z,100309.62
2018-12-05T21:45:33.676Z,100302.95
2018-12-05T21:48:02.293Z,100298.44
2018-12-05T21:50:30.636Z,100288.07
2018-12-05T21:52:59.187Z,100290.16
2018-12-05T21:55:27.509Z,100285.30
2018-12-05T21:57:57.658Z,100277.41
2018-12-05T22:00:26.374Z,100280.01
2018-12-05T22:02:54.888Z,100274.06
2018-12-05T22:05:23.345Z,100276.40
2018-12-05T22:07:51.694Z,100278.97
2018-12-05T22:10:20.009Z,100277.53
2018-12-05T22:12:48.446Z,100279.27
2018-12-05T22:15:16.757Z,100280.01
2018-12-05T22:17:45.196Z,100285.03
2018-12-05T22:20:13.628Z,100280.99
2018-12-05T22:22:41.941Z,100270.20
2018-12-05T22:25:10.284Z,100279.02
2018-12-05T22:27:38.715Z,100271.14
2018-12-05T22:30:07.967Z,100270.08
2018-12-05T22:32:36.317Z,100273.69
2018-12-05T22:35:05.149Z,100278.92
2018-12-05T22:37:33.527Z,100270.94
2018-12-05T22:40:01.844Z,100270.63
2018-12-05T22:42:30.220Z,100267.80
2018-12-05T22:44:58.953Z,100264.72
2018-12-05T22:47:27.296Z,100260.02
2018-12-05T22:49:55.596Z,100245.48
2018-12-05T22:52:24.063Z,100244.80
2018-12-05T22:54:52.551Z,100233.87
2018-12-05T22:57:21.038Z,100228.16
2018-12-05T22:59:49.584Z,100229.05
2018-12-05T23:02:18.277Z,100213.89
2018-12-05T23:04:46.650Z,100224.00
2018-12-05T23:07:15.081Z,100214.44
2018-12-05T23:09:43.371Z,100222.39
2018-12-05T23:12:11.700Z,100217.72
2018-12-05T23:14:40.796Z,100224.17
2018-12-05T23:17:09.204Z,100229.00
2018-12-05T23:19:37.597Z,100219.58
2018-12-05T23:22:06.177Z,100222.65
2018-12-05T23:24:34.638Z,100216.04
2018-12-05T23:27:02.946Z,100214.56
2018-12-05T23:29:31.620Z,100204.90
2018-12-05T23:32:00.727Z,100205.66
2018-12-05T23:34:29.088Z,100204.03
2018-12-05T23:36:58.077Z,100199.25
2018-12-05T23:39:26.429Z,100193.70
2018-12-05T23:41:55.030Z,100183.30
2018-12-05T23:44:23.614Z,100190.80
2018-12-05T23:46:51.918Z,100183.30
2018-12-05T23:49:20.234Z,100174.30
2018-12-05T23:51:48.607Z,100170.33
2018-12-05T23:56:51.395Z,100166.88
2018-12-05T23:59:19.838Z,100163.67
